Wilson Harrier — 9HJP9 — position and weather

sailwx.info

Track history (hours):
 
Tides and Currents Weather Stations Pressure Air Temp Water Temp Dewpoint Dewpoint Depression Visibility Wind Speed Wind Dir Waves Ship Positions

Wilson Harrier

Last reported at 2017-Oct-17 21:01 UTC. Time now 2017-Oct-18 02:17 UTC.
Position N 70°30' E 031°40'.

Length 91 m; draft 3.8 m.

Type: Cargo ship. MMSI: 249066000.

Date/timePositionNaut miles runAvg speedWind from/ knotsBaromVisibWave heightAir tempDewpointWater temp
2017-Oct-17 21:01N 70°30' E 031°40'0 7.6
2017-Oct-17 21:00N 70°30' E 031°40'  
2017-Oct-13 11:46N 70°28' E 031°42'310.9
2017-Oct-13 11:30N 70°30' E 031°34'510.9
2017-Oct-13 11:00N 70°33' E 031°21'611.2
2017-Oct-13 10:30N 70°36' E 031°07'611.5
2017-Oct-13 10:00N 70°40' E 030°54'611.5
2017-Oct-13 09:30N 70°44' E 030°41'611.6
2017-Oct-13 09:00N 70°47' E 030°27'611.3
2017-Oct-13 08:30N 70°51' E 030°13'611.2
2017-Oct-13 08:00N 70°54' E 029°59'611.0
2017-Oct-13 07:29N 70°57' E 029°45'511.0
2017-Oct-13 07:00N 71°00' E 029°31'611.1
2017-Oct-13 06:28N 71°03' E 029°16'3910.2
2017-Oct-13 02:39N 71°17' E 027°23'210.1
2017-Oct-13 02:30N 71°17' E 027°18'510.1
2017-Oct-13 02:00N 71°18' E 027°02'510.2
2017-Oct-13 01:30N 71°18' E 026°47'5 9.9
2017-Oct-13 01:00N 71°18' E 026°31'510.0
2017-Oct-13 00:30N 71°18' E 026°16'510.4
2017-Oct-13 00:00N 71°18' E 025°59'510.2
2017-Oct-12 23:29N 71°18' E 025°43'510.0
2017-Oct-12 23:00N 71°19' E 025°28'510.3
2017-Oct-12 22:30N 71°19' E 025°12'610.4
2017-Oct-12 21:58N 71°18' E 024°54'510.3
2017-Oct-12 21:30N 71°18' E 024°40'510.4
2017-Oct-12 21:00N 71°18' E 024°23'510.8
2017-Oct-12 20:30N 71°18' E 024°07'510.8
2017-Oct-12 20:00N 71°17' E 023°50'610.9
2017-Oct-12 19:30N 71°15' E 023°33'611.1
2017-Oct-12 19:00N 71°13' E 023°18'611.4
2017-Oct-12 18:30N 71°10' E 023°02'611.6
2017-Oct-12 18:00N 71°08' E 022°46'611.5
2017-Oct-12 17:29N 71°05' E 022°30'611.4
2017-Oct-12 17:00N 71°02' E 022°15'711.4
2017-Oct-12 16:24N 70°59' E 021°56'4111.2
2017-Oct-12 12:42N 70°41' E 020°03'210.9
2017-Oct-12 12:30N 70°40' E 019°57'510.7
2017-Oct-12 12:00N 70°38' E 019°42'510.5
2017-Oct-12 11:30N 70°36' E 019°28'510.4
2017-Oct-12 11:00N 70°33' E 019°15'510.3
2017-Oct-12 10:30N 70°29' E 019°03'510.0
2017-Oct-12 10:00N 70°26' E 018°53'510.2
2017-Oct-12 09:30N 70°22' E 018°42'510.4
2017-Oct-12 09:00N 70°19' E 018°31'510.3
2017-Oct-12 08:30N 70°15' E 018°21'510.7
2017-Oct-12 08:00N 70°11' E 018°09'510.3
2017-Oct-12 07:30N 70°08' E 017°57'510.2
2017-Oct-12 07:00N 70°04' E 017°47'510.5
2017-Oct-12 06:30N 70°01' E 017°36'611.0
2017-Oct-12 06:00N 69°57' E 017°25'510.8
2017-Oct-12 05:30N 69°53' E 017°14'611.2
2017-Oct-12 05:00N 69°49' E 017°02'611.4
2017-Oct-12 04:30N 69°45' E 016°50'611.3
2017-Oct-12 04:00N 69°41' E 016°39'611.1
2017-Oct-12 03:30N 69°37' E 016°27'611.8
2017-Oct-12 03:00N 69°33' E 016°15'611.7
2017-Oct-12 02:30N 69°29' E 016°03'612.0
2017-Oct-12 02:00N 69°25' E 015°51'612.0
2017-Oct-12 01:30N 69°21' E 015°37'611.8
2017-Oct-12 01:00N 69°18' E 015°24'611.5
2017-Oct-12 00:30N 69°14' E 015°12'611.6
2017-Oct-12 00:00N 69°10' E 014°59'611.2
2017-Oct-11 23:30N 69°06' E 014°47'611.7
2017-Oct-11 23:00N 69°03' E 014°35'611.9
2017-Oct-11 22:30N 68°59' E 014°23'612.2
2017-Oct-11 22:00N 68°54' E 014°11'611.8
2017-Oct-11 21:30N 68°50' E 014°01'611.7
2017-Oct-11 21:00N 68°45' E 013°52'611.4
2017-Oct-11 20:30N 68°40' E 013°43'611.0
2017-Oct-11 20:00N 68°35' E 013°36'510.9
2017-Oct-11 19:30N 68°30' E 013°29'611.6
2017-Oct-11 19:00N 68°25' E 013°20'611.9
2017-Oct-11 18:30N 68°21' E 013°11'611.6
2017-Oct-11 18:00N 68°16' E 013°02'611.6
2017-Oct-11 17:30N 68°11' E 012°53'611.6
2017-Oct-11 17:00N 68°06' E 012°44'23411.4
2017-Oct-10 20:30N 64°24' E 009°46'611.2
2017-Oct-10 20:00N 64°18' E 009°43'611.5
2017-Oct-10 19:30N 64°13' E 009°41'611.4
2017-Oct-10 19:00N 64°07' E 009°36'611.4
2017-Oct-10 18:30N 64°02' E 009°30'511.3
2017-Oct-10 18:00N 63°57' E 009°25'611.3
2017-Oct-10 17:30N 63°52' E 009°19'611.3
2017-Oct-10 17:00N 63°47' E 009°15'611.8
2017-Oct-10 16:30N 63°41' E 009°15'611.3
2017-Oct-10 16:00N 63°35' E 009°14'5 9.7
2017-Oct-10 15:30N 63°31' E 009°09'5 9.8
2017-Oct-10 15:00N 63°26' E 009°08'7 6.6
2017-Oct-10 13:58N 63°19' E 009°09'0 0.0
2017-Oct-10 13:28N 63°19' E 009°09'0 0.0
2017-Oct-10 12:58N 63°19' E 009°09'0 0.0
2017-Oct-10 12:28N 63°19' E 009°09'0 0.0
2017-Oct-10 11:58N 63°19' E 009°09'0 0.0
2017-Oct-10 11:28N 63°19' E 009°09'0 0.0
2017-Oct-10 10:58N 63°19' E 009°09'0 0.0
2017-Oct-10 10:28N 63°19' E 009°09'0 0.0
2017-Oct-10 09:58N 63°19' E 009°09'0 0.0
2017-Oct-10 09:28N 63°19' E 009°09'0 0.0
2017-Oct-10 08:58N 63°19' E 009°09'0 0.0
2017-Oct-10 08:25N 63°19' E 009°09'0 0.0
2017-Oct-10 07:58N 63°19' E 009°09'0 0.0
2017-Oct-10 07:25N 63°19' E 009°09'0 0.0
2017-Oct-10 06:58N 63°19' E 009°09'0 0.0
2017-Oct-10 06:28N 63°19' E 009°09'0 0.0
2017-Oct-10 05:55N 63°19' E 009°09'0 0.0
2017-Oct-10 05:28N 63°19' E 009°09'0 0.0
2017-Oct-10 04:58N 63°19' E 009°09'0 0.0
2017-Oct-10 04:28N 63°19' E 009°09'0 0.0
2017-Oct-10 03:58N 63°19' E 009°09'0 0.0
2017-Oct-10 03:28N 63°19' E 009°09'0 0.0
2017-Oct-10 02:58N 63°19' E 009°09'0 0.0
2017-Oct-10 02:28N 63°19' E 009°09'0 0.0
2017-Oct-10 01:58N 63°19' E 009°09'0 0.0
2017-Oct-10 01:28N 63°19' E 009°09'0 0.0
2017-Oct-10 00:58N 63°19' E 009°09'0 0.0
2017-Oct-10 00:28N 63°19' E 009°09'0 0.0
2017-Oct-09 23:55N 63°19' E 009°09'0 0.0
2017-Oct-09 23:28N 63°19' E 009°09'0 0.0
2017-Oct-09 22:58N 63°19' E 009°09'0 0.0
2017-Oct-09 22:28N 63°19' E 009°09'0 0.0
2017-Oct-09 21:58N 63°19' E 009°09'0 0.0
2017-Oct-09 21:28N 63°19' E 009°09'0 0.0
2017-Oct-09 20:58N 63°19' E 009°09'0 0.0
2017-Oct-09 20:28N 63°19' E 009°09'0 0.0
2017-Oct-09 19:58N 63°19' E 009°09'0 0.0
2017-Oct-09 19:28N 63°19' E 009°09'0 0.0
2017-Oct-09 18:58N 63°19' E 009°09'0 0.0
2017-Oct-09 18:28N 63°19' E 009°09'0 0.0
2017-Oct-09 17:58N 63°19' E 009°09'0 0.0
2017-Oct-09 17:28N 63°19' E 009°09'0 0.0
2017-Oct-09 16:58N 63°19' E 009°09'0 0.0
2017-Oct-09 16:28N 63°19' E 009°09'0 0.0
2017-Oct-09 15:58N 63°19' E 009°09'0 0.0
2017-Oct-09 15:28N 63°19' E 009°09'0 0.0
2017-Oct-09 14:58N 63°19' E 009°09'0 0.0
2017-Oct-09 14:28N 63°19' E 009°09'0 0.0
2017-Oct-09 13:58N 63°19' E 009°09'0 0.0
2017-Oct-09 13:28N 63°19' E 009°09'0 0.0
2017-Oct-09 12:58N 63°19' E 009°09'0 0.0
2017-Oct-09 12:25N 63°19' E 009°09'0 0.0
2017-Oct-09 11:58N 63°19' E 009°09'0 0.0
2017-Oct-09 11:28N 63°19' E 009°09'0 0.0
2017-Oct-09 10:58N 63°19' E 009°09'0 0.0
2017-Oct-09 10:28N 63°19' E 009°09'0 0.0
2017-Oct-09 09:58N 63°19' E 009°09'0 0.0
2017-Oct-09 09:25N 63°19' E 009°09'0 0.0
2017-Oct-09 08:58N 63°19' E 009°09'0 0.0
2017-Oct-09 08:28N 63°19' E 009°09'0 0.0
2017-Oct-09 07:58N 63°19' E 009°09'0 0.0
2017-Oct-09 07:28N 63°19' E 009°09'0 0.0
2017-Oct-09 06:58N 63°19' E 009°09'0 0.0
2017-Oct-09 06:28N 63°19' E 009°09'0 0.0
2017-Oct-09 05:58N 63°19' E 009°09'0 0.0
2017-Oct-09 05:28N 63°19' E 009°09'0 0.0
2017-Oct-09 04:58N 63°19' E 009°09'0 0.0
2017-Oct-09 04:28N 63°19' E 009°09'0 0.0
2017-Oct-09 03:58N 63°19' E 009°09'0 0.0
2017-Oct-09 03:28N 63°19' E 009°09'0 0.0
2017-Oct-09 02:58N 63°19' E 009°09'0 0.0
2017-Oct-09 02:28N 63°19' E 009°09'0 0.0
2017-Oct-09 01:58N 63°19' E 009°09'0 0.0
2017-Oct-09 01:28N 63°19' E 009°09'0 0.0
2017-Oct-09 00:58N 63°19' E 009°09'0 0.0
2017-Oct-09 00:28N 63°19' E 009°09'0 0.0
2017-Oct-08 23:58N 63°19' E 009°09'0 0.0
2017-Oct-08 23:28N 63°19' E 009°09'0 0.0
2017-Oct-08 22:58N 63°19' E 009°09'0 0.0
2017-Oct-08 22:28N 63°19' E 009°09'0 0.0
2017-Oct-08 21:58N 63°19' E 009°09'0 0.0
2017-Oct-08 21:28N 63°19' E 009°09'0 0.0
2017-Oct-08 20:58N 63°19' E 009°09'0 0.0
2017-Oct-08 20:28N 63°19' E 009°09'0 0.0
2017-Oct-08 19:58N 63°19' E 009°09'0 0.0
2017-Oct-08 19:28N 63°19' E 009°09'0 0.0
2017-Oct-08 18:58N 63°19' E 009°09'0 0.0
2017-Oct-08 18:28N 63°19' E 009°09'0 0.0
2017-Oct-08 17:58N 63°19' E 009°09'0 0.0
2017-Oct-08 17:28N 63°19' E 009°09'0 0.0
2017-Oct-08 16:58N 63°19' E 009°09'0 0.0
2017-Oct-08 16:28N 63°19' E 009°09'0 0.0
2017-Oct-08 15:58N 63°19' E 009°09'0 0.0
2017-Oct-08 15:25N 63°19' E 009°09'0 0.0
2017-Oct-08 14:58N 63°19' E 009°09'0 0.0
2017-Oct-08 14:28N 63°19' E 009°09'0 0.0
2017-Oct-08 13:58N 63°19' E 009°09'0 0.0
2017-Oct-08 13:28N 63°19' E 009°09'0 0.0
2017-Oct-08 12:58N 63°19' E 009°09'0 0.0
2017-Oct-08 12:25N 63°19' E 009°09'0 0.0
2017-Oct-08 11:58N 63°19' E 009°09'0 0.0
2017-Oct-08 11:28N 63°19' E 009°09'0 0.0
2017-Oct-08 10:58N 63°19' E 009°09'0 0.0
2017-Oct-08 10:28N 63°19' E 009°09'0 0.0
2017-Oct-08 09:58N 63°19' E 009°09'0 0.0
2017-Oct-08 09:28N 63°19' E 009°09'0 0.0
2017-Oct-08 08:58N 63°19' E 009°09'0 0.0
2017-Oct-08 08:28N 63°19' E 009°09'0 0.0
2017-Oct-08 07:58N 63°19' E 009°09'0 0.0
2017-Oct-08 07:28N 63°19' E 009°09'0 0.0
2017-Oct-08 06:58N 63°19' E 009°09'0 0.0
2017-Oct-08 06:28N 63°19' E 009°09'0 0.0
2017-Oct-08 05:58N 63°19' E 009°09'0 0.0
2017-Oct-08 05:28N 63°19' E 009°09'0 0.0
2017-Oct-08 04:58N 63°19' E 009°09'0 0.0
2017-Oct-08 04:28N 63°19' E 009°09'0 0.0
2017-Oct-08 03:58N 63°19' E 009°09'0 0.0
2017-Oct-08 03:28N 63°19' E 009°09'0 0.0
2017-Oct-08 02:58N 63°19' E 009°09'0 0.0
2017-Oct-08 02:28N 63°19' E 009°09'0 0.0
2017-Oct-08 01:58N 63°19' E 009°09'0 0.0
2017-Oct-08 01:28N 63°19' E 009°09'0 0.0
2017-Oct-08 00:55N 63°19' E 009°09'0 0.0
2017-Oct-08 00:28N 63°19' E 009°09'0 0.0
2017-Oct-07 23:58N 63°19' E 009°09'0 0.0
2017-Oct-07 23:25N 63°19' E 009°09'0 0.0
2017-Oct-07 22:58N 63°19' E 009°09'0 0.0
2017-Oct-07 22:28N 63°19' E 009°09'0 0.0
2017-Oct-07 21:58N 63°19' E 009°09'0 0.0
2017-Oct-07 21:28N 63°19' E 009°09'  
Track history (hours):
 
Tides and Currents Weather Stations Pressure Air Temp Water Temp Dewpoint Dewpoint Depression Visibility Wind Speed Wind Dir Waves Ship Positions

Wilson Harrier

Last reported at 2017-Oct-17 21:01 UTC. Time now 2017-Oct-18 02:17 UTC.
Position N 70°30' E 031°40'.

Length 91 m; draft 3.8 m.

Type: Cargo ship. MMSI: 249066000.

Date/timePositionNaut miles runAvg speedWind from/ knotsBaromVisibWave heightAir tempDewpointWater temp
2017-Oct-17 21:01N 70°30' E 031°40'0 7.6
2017-Oct-17 21:00N 70°30' E 031°40'  
2017-Oct-13 11:46N 70°28' E 031°42'310.9
2017-Oct-13 11:30N 70°30' E 031°34'510.9
2017-Oct-13 11:00N 70°33' E 031°21'611.2
2017-Oct-13 10:30N 70°36' E 031°07'611.5
2017-Oct-13 10:00N 70°40' E 030°54'611.5
2017-Oct-13 09:30N 70°44' E 030°41'611.6
2017-Oct-13 09:00N 70°47' E 030°27'611.3
2017-Oct-13 08:30N 70°51' E 030°13'611.2
2017-Oct-13 08:00N 70°54' E 029°59'611.0
2017-Oct-13 07:29N 70°57' E 029°45'511.0
2017-Oct-13 07:00N 71°00' E 029°31'611.1
2017-Oct-13 06:28N 71°03' E 029°16'3910.2
2017-Oct-13 02:39N 71°17' E 027°23'210.1
2017-Oct-13 02:30N 71°17' E 027°18'510.1
2017-Oct-13 02:00N 71°18' E 027°02'510.2
2017-Oct-13 01:30N 71°18' E 026°47'5 9.9
2017-Oct-13 01:00N 71°18' E 026°31'510.0
2017-Oct-13 00:30N 71°18' E 026°16'510.4
2017-Oct-13 00:00N 71°18' E 025°59'510.2
2017-Oct-12 23:29N 71°18' E 025°43'510.0
2017-Oct-12 23:00N 71°19' E 025°28'510.3
2017-Oct-12 22:30N 71°19' E 025°12'610.4
2017-Oct-12 21:58N 71°18' E 024°54'510.3
2017-Oct-12 21:30N 71°18' E 024°40'510.4
2017-Oct-12 21:00N 71°18' E 024°23'510.8
2017-Oct-12 20:30N 71°18' E 024°07'510.8
2017-Oct-12 20:00N 71°17' E 023°50'610.9
2017-Oct-12 19:30N 71°15' E 023°33'611.1
2017-Oct-12 19:00N 71°13' E 023°18'611.4
2017-Oct-12 18:30N 71°10' E 023°02'611.6
2017-Oct-12 18:00N 71°08' E 022°46'611.5
2017-Oct-12 17:29N 71°05' E 022°30'611.4
2017-Oct-12 17:00N 71°02' E 022°15'711.4
2017-Oct-12 16:24N 70°59' E 021°56'4111.2
2017-Oct-12 12:42N 70°41' E 020°03'210.9
2017-Oct-12 12:30N 70°40' E 019°57'510.7
2017-Oct-12 12:00N 70°38' E 019°42'510.5
2017-Oct-12 11:30N 70°36' E 019°28'510.4
2017-Oct-12 11:00N 70°33' E 019°15'510.3
2017-Oct-12 10:30N 70°29' E 019°03'510.0
2017-Oct-12 10:00N 70°26' E 018°53'510.2
2017-Oct-12 09:30N 70°22' E 018°42'510.4
2017-Oct-12 09:00N 70°19' E 018°31'510.3
2017-Oct-12 08:30N 70°15' E 018°21'510.7
2017-Oct-12 08:00N 70°11' E 018°09'510.3
2017-Oct-12 07:30N 70°08' E 017°57'510.2
2017-Oct-12 07:00N 70°04' E 017°47'510.5
2017-Oct-12 06:30N 70°01' E 017°36'611.0
2017-Oct-12 06:00N 69°57' E 017°25'510.8
2017-Oct-12 05:30N 69°53' E 017°14'611.2
2017-Oct-12 05:00N 69°49' E 017°02'611.4
2017-Oct-12 04:30N 69°45' E 016°50'611.3
2017-Oct-12 04:00N 69°41' E 016°39'611.1
2017-Oct-12 03:30N 69°37' E 016°27'611.8
2017-Oct-12 03:00N 69°33' E 016°15'611.7
2017-Oct-12 02:30N 69°29' E 016°03'612.0
2017-Oct-12 02:00N 69°25' E 015°51'612.0
2017-Oct-12 01:30N 69°21' E 015°37'611.8
2017-Oct-12 01:00N 69°18' E 015°24'611.5
2017-Oct-12 00:30N 69°14' E 015°12'611.6
2017-Oct-12 00:00N 69°10' E 014°59'611.2
2017-Oct-11 23:30N 69°06' E 014°47'611.7
2017-Oct-11 23:00N 69°03' E 014°35'611.9
2017-Oct-11 22:30N 68°59' E 014°23'612.2
2017-Oct-11 22:00N 68°54' E 014°11'611.8
2017-Oct-11 21:30N 68°50' E 014°01'611.7
2017-Oct-11 21:00N 68°45' E 013°52'611.4
2017-Oct-11 20:30N 68°40' E 013°43'611.0
2017-Oct-11 20:00N 68°35' E 013°36'510.9
2017-Oct-11 19:30N 68°30' E 013°29'611.6
2017-Oct-11 19:00N 68°25' E 013°20'611.9
2017-Oct-11 18:30N 68°21' E 013°11'611.6
2017-Oct-11 18:00N 68°16' E 013°02'611.6
2017-Oct-11 17:30N 68°11' E 012°53'611.6
2017-Oct-11 17:00N 68°06' E 012°44'23411.4
2017-Oct-10 20:30N 64°24' E 009°46'611.2
2017-Oct-10 20:00N 64°18' E 009°43'611.5
2017-Oct-10 19:30N 64°13' E 009°41'611.4
2017-Oct-10 19:00N 64°07' E 009°36'611.4
2017-Oct-10 18:30N 64°02' E 009°30'511.3
2017-Oct-10 18:00N 63°57' E 009°25'611.3
2017-Oct-10 17:30N 63°52' E 009°19'611.3
2017-Oct-10 17:00N 63°47' E 009°15'611.8
2017-Oct-10 16:30N 63°41' E 009°15'611.3
2017-Oct-10 16:00N 63°35' E 009°14'5 9.7
2017-Oct-10 15:30N 63°31' E 009°09'5 9.8
2017-Oct-10 15:00N 63°26' E 009°08'7 6.6
2017-Oct-10 13:58N 63°19' E 009°09'0 0.0
2017-Oct-10 13:28N 63°19' E 009°09'0 0.0
2017-Oct-10 12:58N 63°19' E 009°09'0 0.0
2017-Oct-10 12:28N 63°19' E 009°09'0 0.0
2017-Oct-10 11:58N 63°19' E 009°09'0 0.0
2017-Oct-10 11:28N 63°19' E 009°09'0 0.0
2017-Oct-10 10:58N 63°19' E 009°09'0 0.0
2017-Oct-10 10:28N 63°19' E 009°09'0 0.0
2017-Oct-10 09:58N 63°19' E 009°09'0 0.0
2017-Oct-10 09:28N 63°19' E 009°09'0 0.0
2017-Oct-10 08:58N 63°19' E 009°09'0 0.0
2017-Oct-10 08:25N 63°19' E 009°09'0 0.0
2017-Oct-10 07:58N 63°19' E 009°09'0 0.0
2017-Oct-10 07:25N 63°19' E 009°09'0 0.0
2017-Oct-10 06:58N 63°19' E 009°09'0 0.0
2017-Oct-10 06:28N 63°19' E 009°09'0 0.0
2017-Oct-10 05:55N 63°19' E 009°09'0 0.0
2017-Oct-10 05:28N 63°19' E 009°09'0 0.0
2017-Oct-10 04:58N 63°19' E 009°09'0 0.0
2017-Oct-10 04:28N 63°19' E 009°09'0 0.0
2017-Oct-10 03:58N 63°19' E 009°09'0 0.0
2017-Oct-10 03:28N 63°19' E 009°09'0 0.0
2017-Oct-10 02:58N 63°19' E 009°09'0 0.0
2017-Oct-10 02:28N 63°19' E 009°09'0 0.0
2017-Oct-10 01:58N 63°19' E 009°09'0 0.0
2017-Oct-10 01:28N 63°19' E 009°09'0 0.0
2017-Oct-10 00:58N 63°19' E 009°09'0 0.0
2017-Oct-10 00:28N 63°19' E 009°09'0 0.0
2017-Oct-09 23:55N 63°19' E 009°09'0 0.0
2017-Oct-09 23:28N 63°19' E 009°09'0 0.0
2017-Oct-09 22:58N 63°19' E 009°09'0 0.0
2017-Oct-09 22:28N 63°19' E 009°09'0 0.0
2017-Oct-09 21:58N 63°19' E 009°09'0 0.0
2017-Oct-09 21:28N 63°19' E 009°09'0 0.0
2017-Oct-09 20:58N 63°19' E 009°09'0 0.0
2017-Oct-09 20:28N 63°19' E 009°09'0 0.0
2017-Oct-09 19:58N 63°19' E 009°09'0 0.0
2017-Oct-09 19:28N 63°19' E 009°09'0 0.0
2017-Oct-09 18:58N 63°19' E 009°09'0 0.0
2017-Oct-09 18:28N 63°19' E 009°09'0 0.0
2017-Oct-09 17:58N 63°19' E 009°09'0 0.0
2017-Oct-09 17:28N 63°19' E 009°09'0 0.0
2017-Oct-09 16:58N 63°19' E 009°09'0 0.0
2017-Oct-09 16:28N 63°19' E 009°09'0 0.0
2017-Oct-09 15:58N 63°19' E 009°09'0 0.0
2017-Oct-09 15:28N 63°19' E 009°09'0 0.0
2017-Oct-09 14:58N 63°19' E 009°09'0 0.0
2017-Oct-09 14:28N 63°19' E 009°09'0 0.0
2017-Oct-09 13:58N 63°19' E 009°09'0 0.0
2017-Oct-09 13:28N 63°19' E 009°09'0 0.0
2017-Oct-09 12:58N 63°19' E 009°09'0 0.0
2017-Oct-09 12:25N 63°19' E 009°09'0 0.0
2017-Oct-09 11:58N 63°19' E 009°09'0 0.0
2017-Oct-09 11:28N 63°19' E 009°09'0 0.0
2017-Oct-09 10:58N 63°19' E 009°09'0 0.0
2017-Oct-09 10:28N 63°19' E 009°09'0 0.0
2017-Oct-09 09:58N 63°19' E 009°09'0 0.0
2017-Oct-09 09:25N 63°19' E 009°09'0 0.0
2017-Oct-09 08:58N 63°19' E 009°09'0 0.0
2017-Oct-09 08:28N 63°19' E 009°09'0 0.0
2017-Oct-09 07:58N 63°19' E 009°09'0 0.0
2017-Oct-09 07:28N 63°19' E 009°09'0 0.0
2017-Oct-09 06:58N 63°19' E 009°09'0 0.0
2017-Oct-09 06:28N 63°19' E 009°09'0 0.0
2017-Oct-09 05:58N 63°19' E 009°09'0 0.0
2017-Oct-09 05:28N 63°19' E 009°09'0 0.0
2017-Oct-09 04:58N 63°19' E 009°09'0 0.0
2017-Oct-09 04:28N 63°19' E 009°09'0 0.0
2017-Oct-09 03:58N 63°19' E 009°09'0 0.0
2017-Oct-09 03:28N 63°19' E 009°09'0 0.0
2017-Oct-09 02:58N 63°19' E 009°09'0 0.0
2017-Oct-09 02:28N 63°19' E 009°09'0 0.0
2017-Oct-09 01:58N 63°19' E 009°09'0 0.0
2017-Oct-09 01:28N 63°19' E 009°09'0 0.0
2017-Oct-09 00:58N 63°19' E 009°09'0 0.0
2017-Oct-09 00:28N 63°19' E 009°09'0 0.0
2017-Oct-08 23:58N 63°19' E 009°09'0 0.0
2017-Oct-08 23:28N 63°19' E 009°09'0 0.0
2017-Oct-08 22:58N 63°19' E 009°09'0 0.0
2017-Oct-08 22:28N 63°19' E 009°09'0 0.0
2017-Oct-08 21:58N 63°19' E 009°09'0 0.0
2017-Oct-08 21:28N 63°19' E 009°09'0 0.0
2017-Oct-08 20:58N 63°19' E 009°09'0 0.0
2017-Oct-08 20:28N 63°19' E 009°09'0 0.0
2017-Oct-08 19:58N 63°19' E 009°09'0 0.0
2017-Oct-08 19:28N 63°19' E 009°09'0 0.0
2017-Oct-08 18:58N 63°19' E 009°09'0 0.0
2017-Oct-08 18:28N 63°19' E 009°09'0 0.0
2017-Oct-08 17:58N 63°19' E 009°09'0 0.0
2017-Oct-08 17:28N 63°19' E 009°09'0 0.0
2017-Oct-08 16:58N 63°19' E 009°09'0 0.0
2017-Oct-08 16:28N 63°19' E 009°09'0 0.0
2017-Oct-08 15:58N 63°19' E 009°09'0 0.0
2017-Oct-08 15:25N 63°19' E 009°09'0 0.0
2017-Oct-08 14:58N 63°19' E 009°09'0 0.0
2017-Oct-08 14:28N 63°19' E 009°09'0 0.0
2017-Oct-08 13:58N 63°19' E 009°09'0 0.0
2017-Oct-08 13:28N 63°19' E 009°09'0 0.0
2017-Oct-08 12:58N 63°19' E 009°09'0 0.0
2017-Oct-08 12:25N 63°19' E 009°09'0 0.0
2017-Oct-08 11:58N 63°19' E 009°09'0 0.0
2017-Oct-08 11:28N 63°19' E 009°09'0 0.0
2017-Oct-08 10:58N 63°19' E 009°09'0 0.0
2017-Oct-08 10:28N 63°19' E 009°09'0 0.0
2017-Oct-08 09:58N 63°19' E 009°09'0 0.0
2017-Oct-08 09:28N 63°19' E 009°09'0 0.0
2017-Oct-08 08:58N 63°19' E 009°09'0 0.0
2017-Oct-08 08:28N 63°19' E 009°09'0 0.0
2017-Oct-08 07:58N 63°19' E 009°09'0 0.0
2017-Oct-08 07:28N 63°19' E 009°09'0 0.0
2017-Oct-08 06:58N 63°19' E 009°09'0 0.0
2017-Oct-08 06:28N 63°19' E 009°09'0 0.0
2017-Oct-08 05:58N 63°19' E 009°09'0 0.0
2017-Oct-08 05:28N 63°19' E 009°09'0 0.0
2017-Oct-08 04:58N 63°19' E 009°09'0 0.0
2017-Oct-08 04:28N 63°19' E 009°09'0 0.0
2017-Oct-08 03:58N 63°19' E 009°09'0 0.0
2017-Oct-08 03:28N 63°19' E 009°09'0 0.0
2017-Oct-08 02:58N 63°19' E 009°09'0 0.0
2017-Oct-08 02:28N 63°19' E 009°09'0 0.0
2017-Oct-08 01:58N 63°19' E 009°09'0 0.0
2017-Oct-08 01:28N 63°19' E 009°09'0 0.0
2017-Oct-08 00:55N 63°19' E 009°09'0 0.0
2017-Oct-08 00:28N 63°19' E 009°09'0 0.0
2017-Oct-07 23:58N 63°19' E 009°09'0 0.0
2017-Oct-07 23:25N 63°19' E 009°09'0 0.0
2017-Oct-07 22:58N 63°19' E 009°09'0 0.0
2017-Oct-07 22:28N 63°19' E 009°09'0 0.0
2017-Oct-07 21:58N 63°19' E 009°09'0 0.0
2017-Oct-07 21:28N 63°19' E 009°09'  

Dump ship's entire track history